sensor_id;sensor_type;location;lat;lon;timestamp;temperature;humidity
3876;DHT22;1953;51.222;6.624;2023-07-13T00:01:41;19.30;1.00
3876;DHT22;1953;51.222;6.624;2023-07-13T00:06:24;19.30;1.00
3876;DHT22;1953;51.222;6.624;2023-07-13T00:14:56;19.20;1.00
3876;DHT22;1953;51.222;6.624;2023-07-13T00:19:38;19.10;1.00
3876;DHT22;1953;51.222;6.624;2023-07-13T00:24:21;19.00;1.00
3876;DHT22;1953;51.222;6.624;2023-07-13T00:40:21;18.80;1.00
3876;DHT22;1953;51.222;6.624;2023-07-13T00:45:07;18.70;1.00
3876;DHT22;1953;51.222;6.624;2023-07-13T00:50:11;18.60;1.00
3876;DHT22;1953;51.222;6.624;2023-07-13T00:54:54;18.60;1.00
3876;DHT22;1953;51.222;6.624;2023-07-13T00:59:41;18.60;1.00
3876;DHT22;1953;51.222;6.624;2023-07-13T01:04:25;18.50;1.00
3876;DHT22;1953;51.222;6.624;2023-07-13T01:09:08;18.50;1.00
3876;DHT22;1953;51.222;6.624;2023-07-13T01:13:51;18.40;1.00
3876;DHT22;1953;51.222;6.624;2023-07-13T01:18:36;18.40;1.00
3876;DHT22;1953;51.222;6.624;2023-07-13T01:23:22;18.30;1.00
3876;DHT22;1953;51.222;6.624;2023-07-13T01:28:07;18.40;1.00
3876;DHT22;1953;51.222;6.624;2023-07-13T01:32:50;18.30;1.00
3876;DHT22;1953;51.222;6.624;2023-07-13T01:37:33;18.30;1.00
3876;DHT22;1953;51.222;6.624;2023-07-13T01:42:18;18.20;1.00
3876;DHT22;1953;51.222;6.624;2023-07-13T01:47:02;18.10;1.00
3876;DHT22;1953;51.222;6.624;2023-07-13T01:51:45;18.00;1.00
3876;DHT22;1953;51.222;6.624;2023-07-13T01:56:27;17.90;1.00
3876;DHT22;1953;51.222;6.624;2023-07-13T02:01:11;17.80;1.00
3876;DHT22;1953;51.222;6.624;2023-07-13T02:05:53;17.70;1.00
3876;DHT22;1953;51.222;6.624;2023-07-13T02:10:37;17.60;1.00
3876;DHT22;1953;51.222;6.624;2023-07-13T02:15:20;17.60;1.00
3876;DHT22;1953;51.222;6.624;2023-07-13T02:20:05;17.50;1.00
3876;DHT22;1953;51.222;6.624;2023-07-13T02:24:48;17.50;1.00
3876;DHT22;1953;51.222;6.624;2023-07-13T02:29:31;17.40;1.00
3876;DHT22;1953;51.222;6.624;2023-07-13T02:34:13;17.40;1.00
3876;DHT22;1953;51.222;6.624;2023-07-13T02:39:00;17.40;1.00
3876;DHT22;1953;51.222;6.624;2023-07-13T02:43:44;17.30;1.00
3876;DHT22;1953;51.222;6.624;2023-07-13T02:48:26;17.30;1.00
3876;DHT22;1953;51.222;6.624;2023-07-13T02:53:09;17.20;1.00
3876;DHT22;1953;51.222;6.624;2023-07-13T02:57:53;17.20;1.00
3876;DHT22;1953;51.222;6.624;2023-07-13T03:02:35;17.20;1.00
3876;DHT22;1953;51.222;6.624;2023-07-13T03:07:18;17.30;1.00
3876;DHT22;1953;51.222;6.624;2023-07-13T03:12:01;17.10;1.00
3876;DHT22;1953;51.222;6.624;2023-07-13T03:16:45;17.10;1.00
3876;DHT22;1953;51.222;6.624;2023-07-13T03:21:27;17.10;1.00
3876;DHT22;1953;51.222;6.624;2023-07-13T03:26:12;17.10;1.00
3876;DHT22;1953;51.222;6.624;2023-07-13T03:31:00;17.00;1.00
3876;DHT22;1953;51.222;6.624;2023-07-13T03:35:44;17.00;1.00
3876;DHT22;1953;51.222;6.624;2023-07-13T03:40:26;16.90;1.00
3876;DHT22;1953;51.222;6.624;2023-07-13T03:45:09;16.90;1.00
3876;DHT22;1953;51.222;6.624;2023-07-13T03:49:52;16.80;1.00
3876;DHT22;1953;51.222;6.624;2023-07-13T03:54:36;16.70;1.00
3876;DHT22;1953;51.222;6.624;2023-07-13T03:59:19;16.70;1.00
3876;DHT22;1953;51.222;6.624;2023-07-13T04:04:01;16.60;1.00
3876;DHT22;1953;51.222;6.624;2023-07-13T04:08:44;16.60;1.00
3876;DHT22;1953;51.222;6.624;2023-07-13T04:13:28;16.60;1.00
3876;DHT22;1953;51.222;6.624;2023-07-13T04:18:10;16.70;1.00
3876;DHT22;1953;51.222;6.624;2023-07-13T04:22:53;16.70;1.00
3876;DHT22;1953;51.222;6.624;2023-07-13T04:27:35;16.70;1.00
3876;DHT22;1953;51.222;6.624;2023-07-13T04:32:19;16.70;1.00
3876;DHT22;1953;51.222;6.624;2023-07-13T04:37:02;16.70;1.00
3876;DHT22;1953;51.222;6.624;2023-07-13T04:41:45;16.70;1.00
3876;DHT22;1953;51.222;6.624;2023-07-13T04:46:28;16.70;1.00
3876;DHT22;1953;51.222;6.624;2023-07-13T04:51:12;16.80;1.00
3876;DHT22;1953;51.222;6.624;2023-07-13T04:55:54;16.90;1.00
3876;DHT22;1953;51.222;6.624;2023-07-13T05:00:37;16.90;1.00
3876;DHT22;1953;51.222;6.624;2023-07-13T05:05:20;16.90;1.00
3876;DHT22;1953;51.222;6.624;2023-07-13T05:10:04;17.10;1.00
3876;DHT22;1953;51.222;6.624;2023-07-13T05:14:47;17.10;1.00
3876;DHT22;1953;51.222;6.624;2023-07-13T05:19:30;17.10;1.00
3876;DHT22;1953;51.222;6.624;2023-07-13T05:24:13;17.20;1.00
3876;DHT22;1953;51.222;6.624;2023-07-13T05:28:57;17.30;1.00
3876;DHT22;1953;51.222;6.624;2023-07-13T05:33:39;17.40;1.00
3876;DHT22;1953;51.222;6.624;2023-07-13T05:38:22;17.40;1.00
3876;DHT22;1953;51.222;6.624;2023-07-13T05:43:04;17.50;1.00
3876;DHT22;1953;51.222;6.624;2023-07-13T05:47:48;17.50;1.00
3876;DHT22;1953;51.222;6.624;2023-07-13T05:52:31;17.60;1.00
3876;DHT22;1953;51.222;6.624;2023-07-13T05:57:13;17.60;1.00
3876;DHT22;1953;51.222;6.624;2023-07-13T06:01:56;17.70;1.00
3876;DHT22;1953;51.222;6.624;2023-07-13T06:06:40;17.80;1.00
3876;DHT22;1953;51.222;6.624;2023-07-13T06:11:24;17.90;1.00
3876;DHT22;1953;51.222;6.624;2023-07-13T06:16:07;18.00;1.00
3876;DHT22;1953;51.222;6.624;2023-07-13T06:20:50;18.20;1.00
3876;DHT22;1953;51.222;6.624;2023-07-13T06:25:34;17.30;1.00
3876;DHT22;1953;51.222;6.624;2023-07-13T06:30:16;18.40;1.00
3876;DHT22;1953;51.222;6.624;2023-07-13T06:34:59;18.70;1.00
3876;DHT22;1953;51.222;6.624;2023-07-13T06:39:41;18.80;1.00
3876;DHT22;1953;51.222;6.624;2023-07-13T06:44:25;19.50;1.00
3876;DHT22;1953;51.222;6.624;2023-07-13T06:49:08;18.80;1.00
3876;DHT22;1953;51.222;6.624;2023-07-13T06:53:51;18.80;1.00
3876;DHT22;1953;51.222;6.624;2023-07-13T06:58:34;18.90;1.00
3876;DHT22;1953;51.222;6.624;2023-07-13T07:03:18;19.00;1.00
3876;DHT22;1953;51.222;6.624;2023-07-13T07:08:01;18.90;1.00
3876;DHT22;1953;51.222;6.624;2023-07-13T07:12:44;19.00;1.00
3876;DHT22;1953;51.222;6.624;2023-07-13T07:17:26;19.10;1.00
3876;DHT22;1953;51.222;6.624;2023-07-13T07:22:10;19.30;1.00
3876;DHT22;1953;51.222;6.624;2023-07-13T07:26:53;19.50;1.00
3876;DHT22;1953;51.222;6.624;2023-07-13T07:31:35;19.50;1.00
3876;DHT22;1953;51.222;6.624;2023-07-13T07:36:18;19.60;1.00
3876;DHT22;1953;51.222;6.624;2023-07-13T07:41:04;19.60;1.00
3876;DHT22;1953;51.222;6.624;2023-07-13T07:45:47;19.50;1.00
3876;DHT22;1953;51.222;6.624;2023-07-13T07:50:29;19.70;1.00
3876;DHT22;1953;51.222;6.624;2023-07-13T07:55:12;19.90;1.00
3876;DHT22;1953;51.222;6.624;2023-07-13T07:59:56;20.00;1.00
3876;DHT22;1953;51.222;6.624;2023-07-13T08:04:38;20.20;1.00
3876;DHT22;1953;51.222;6.624;2023-07-13T08:09:21;20.40;1.00
3876;DHT22;1953;51.222;6.624;2023-07-13T08:14:03;20.60;1.00
3876;DHT22;1953;51.222;6.624;2023-07-13T08:18:47;20.70;1.00
3876;DHT22;1953;51.222;6.624;2023-07-13T08:23:30;20.80;1.00
3876;DHT22;1953;51.222;6.624;2023-07-13T08:28:13;20.90;1.00
3876;DHT22;1953;51.222;6.624;2023-07-13T08:32:56;21.00;1.00
3876;DHT22;1953;51.222;6.624;2023-07-13T08:37:40;21.00;1.00
3876;DHT22;1953;51.222;6.624;2023-07-13T08:42:31;21.00;1.00
3876;DHT22;1953;51.222;6.624;2023-07-13T08:47:15;21.10;1.00
3876;DHT22;1953;51.222;6.624;2023-07-13T08:52:02;21.00;1.00
3876;DHT22;1953;51.222;6.624;2023-07-13T08:56:50;21.00;1.00
3876;DHT22;1953;51.222;6.624;2023-07-13T09:01:53;21.00;1.00
3876;DHT22;1953;51.222;6.624;2023-07-13T09:06:45;21.30;1.00
3876;DHT22;1953;51.222;6.624;2023-07-13T09:11:40;21.20;1.00
3876;DHT22;1953;51.222;6.624;2023-07-13T09:16:28;21.50;1.00
3876;DHT22;1953;51.222;6.624;2023-07-13T09:21:13;21.60;1.00
3876;DHT22;1953;51.222;6.624;2023-07-13T09:26:01;21.70;1.00
3876;DHT22;1953;51.222;6.624;2023-07-13T09:30:49;21.50;1.00
3876;DHT22;1953;51.222;6.624;2023-07-13T09:35:36;21.50;1.00
3876;DHT22;1953;51.222;6.624;2023-07-13T09:40:23;21.70;1.00
3876;DHT22;1953;51.222;6.624;2023-07-13T09:45:07;21.60;1.00
3876;DHT22;1953;51.222;6.624;2023-07-13T09:49:54;21.70;1.00
3876;DHT22;1953;51.222;6.624;2023-07-13T09:54:45;21.80;1.00
3876;DHT22;1953;51.222;6.624;2023-07-13T09:59:31;21.80;1.00
3876;DHT22;1953;51.222;6.624;2023-07-13T10:04:17;22.00;1.00
3876;DHT22;1953;51.222;6.624;2023-07-13T10:09:00;22.20;1.00
3876;DHT22;1953;51.222;6.624;2023-07-13T10:13:48;22.20;1.00
3876;DHT22;1953;51.222;6.624;2023-07-13T10:18:39;22.30;1.00
3876;DHT22;1953;51.222;6.624;2023-07-13T10:23:31;22.30;1.00
3876;DHT22;1953;51.222;6.624;2023-07-13T10:28:23;22.50;1.00
3876;DHT22;1953;51.222;6.624;2023-07-13T10:33:12;22.60;1.00
3876;DHT22;1953;51.222;6.624;2023-07-13T10:37:57;22.70;1.00
3876;DHT22;1953;51.222;6.624;2023-07-13T10:42:46;24.30;1.00
3876;DHT22;1953;51.222;6.624;2023-07-13T10:47:30;22.90;1.00
3876;DHT22;1953;51.222;6.624;2023-07-13T10:52:42;23.00;1.00
3876;DHT22;1953;51.222;6.624;2023-07-13T10:57:27;23.10;1.00
3876;DHT22;1953;51.222;6.624;2023-07-13T11:02:12;23.40;1.00
3876;DHT22;1953;51.222;6.624;2023-07-13T11:06:59;23.40;1.00
3876;DHT22;1953;51.222;6.624;2023-07-13T11:11:56;23.40;1.00
3876;DHT22;1953;51.222;6.624;2023-07-13T11:16:45;23.50;1.00
3876;DHT22;1953;51.222;6.624;2023-07-13T11:21:29;23.40;1.00
3876;DHT22;1953;51.222;6.624;2023-07-13T11:26:37;23.50;1.00
3876;DHT22;1953;51.222;6.624;2023-07-13T11:31:22;23.60;1.00
3876;DHT22;1953;51.222;6.624;2023-07-13T11:36:06;23.50;1.00
3876;DHT22;1953;51.222;6.624;2023-07-13T11:40:54;23.40;1.00
3876;DHT22;1953;51.222;6.624;2023-07-13T11:45:37;23.50;1.00
3876;DHT22;1953;51.222;6.624;2023-07-13T11:50:23;24.00;1.00
3876;DHT22;1953;51.222;6.624;2023-07-13T11:55:13;24.30;1.00
3876;DHT22;1953;51.222;6.624;2023-07-13T11:59:57;24.50;1.00
3876;DHT22;1953;51.222;6.624;2023-07-13T12:04:42;24.60;1.00
3876;DHT22;1953;51.222;6.624;2023-07-13T12:09:28;24.70;1.00
3876;DHT22;1953;51.222;6.624;2023-07-13T12:15:56;24.50;1.00
3876;DHT22;1953;51.222;6.624;2023-07-13T12:20:39;24.70;1.00
3876;DHT22;1953;51.222;6.624;2023-07-13T12:25:29;25.30;1.00
3876;DHT22;1953;51.222;6.624;2023-07-13T12:30:25;25.60;1.00
3876;DHT22;1953;51.222;6.624;2023-07-13T12:35:16;25.80;1.00
3876;DHT22;1953;51.222;6.624;2023-07-13T12:40:00;26.60;1.00
3876;DHT22;1953;51.222;6.624;2023-07-13T12:44:43;26.70;1.00
3876;DHT22;1953;51.222;6.624;2023-07-13T12:49:29;26.40;1.00
3876;DHT22;1953;51.222;6.624;2023-07-13T12:54:18;26.20;1.00
3876;DHT22;1953;51.222;6.624;2023-07-13T12:59:04;26.20;1.00
3876;DHT22;1953;51.222;6.624;2023-07-13T13:03:49;27.30;1.00
3876;DHT22;1953;51.222;6.624;2023-07-13T13:08:34;27.60;1.00
3876;DHT22;1953;51.222;6.624;2023-07-13T13:13:18;27.50;1.00
3876;DHT22;1953;51.222;6.624;2023-07-13T13:18:00;26.60;1.00
3876;DHT22;1953;51.222;6.624;2023-07-13T13:22:43;26.00;1.00
3876;DHT22;1953;51.222;6.624;2023-07-13T13:27:25;26.20;1.00
3876;DHT22;1953;51.222;6.624;2023-07-13T13:32:12;26.20;1.00
3876;DHT22;1953;51.222;6.624;2023-07-13T13:36:55;25.00;1.00
3876;DHT22;1953;51.222;6.624;2023-07-13T13:41:37;25.70;1.00
3876;DHT22;1953;51.222;6.624;2023-07-13T13:46:23;25.60;1.00
3876;DHT22;1953;51.222;6.624;2023-07-13T13:51:13;26.20;1.00
3876;DHT22;1953;51.222;6.624;2023-07-13T13:55:56;27.70;1.00
3876;DHT22;1953;51.222;6.624;2023-07-13T14:00:41;27.60;1.00
3876;DHT22;1953;51.222;6.624;2023-07-13T14:05:26;27.90;1.00
3876;DHT22;1953;51.222;6.624;2023-07-13T14:10:13;27.20;1.00
3876;DHT22;1953;51.222;6.624;2023-07-13T14:14:56;26.80;1.00
3876;DHT22;1953;51.222;6.624;2023-07-13T14:19:39;26.40;1.00
3876;DHT22;1953;51.222;6.624;2023-07-13T14:24:22;26.00;1.00
3876;DHT22;1953;51.222;6.624;2023-07-13T14:29:12;26.00;1.00
3876;DHT22;1953;51.222;6.624;2023-07-13T14:33:55;25.80;1.00
3876;DHT22;1953;51.222;6.624;2023-07-13T14:38:39;25.30;1.00
3876;DHT22;1953;51.222;6.624;2023-07-13T14:43:21;25.10;1.00
3876;DHT22;1953;51.222;6.624;2023-07-13T14:48:13;24.50;1.00
3876;DHT22;1953;51.222;6.624;2023-07-13T14:52:55;24.30;1.00
3876;DHT22;1953;51.222;6.624;2023-07-13T14:57:38;24.20;1.00
3876;DHT22;1953;51.222;6.624;2023-07-13T15:02:25;24.30;1.00
3876;DHT22;1953;51.222;6.624;2023-07-13T15:07:11;24.20;1.00
3876;DHT22;1953;51.222;6.624;2023-07-13T15:11:55;24.10;1.00
3876;DHT22;1953;51.222;6.624;2023-07-13T15:16:37;23.80;1.00
3876;DHT22;1953;51.222;6.624;2023-07-13T15:21:23;23.70;1.00
3876;DHT22;1953;51.222;6.624;2023-07-13T15:26:10;23.40;1.00
3876;DHT22;1953;51.222;6.624;2023-07-13T15:30:54;23.00;1.00
3876;DHT22;1953;51.222;6.624;2023-07-13T15:35:36;22.70;1.00
3876;DHT22;1953;51.222;6.624;2023-07-13T15:40:19;22.60;1.00
3876;DHT22;1953;51.222;6.624;2023-07-13T15:45:05;22.50;1.00
3876;DHT22;1953;51.222;6.624;2023-07-13T15:49:48;22.50;1.00
3876;DHT22;1953;51.222;6.624;2023-07-13T15:54:30;22.30;1.00
3876;DHT22;1953;51.222;6.624;2023-07-13T15:59:14;22.40;1.00
3876;DHT22;1953;51.222;6.624;2023-07-13T16:03:58;22.30;1.00
3876;DHT22;1953;51.222;6.624;2023-07-13T16:08:41;22.20;1.00
3876;DHT22;1953;51.222;6.624;2023-07-13T16:13:24;22.20;1.00
3876;DHT22;1953;51.222;6.624;2023-07-13T16:18:07;22.20;1.00
3876;DHT22;1953;51.222;6.624;2023-07-13T16:22:52;22.20;1.00
3876;DHT22;1953;51.222;6.624;2023-07-13T16:27:35;22.10;1.00
3876;DHT22;1953;51.222;6.624;2023-07-13T16:32:18;22.00;1.00
3876;DHT22;1953;51.222;6.624;2023-07-13T16:37:01;22.00;1.00
3876;DHT22;1953;51.222;6.624;2023-07-13T16:41:47;22.10;1.00
3876;DHT22;1953;51.222;6.624;2023-07-13T16:46:29;22.10;1.00
3876;DHT22;1953;51.222;6.624;2023-07-13T16:51:12;22.20;1.00
3876;DHT22;1953;51.222;6.624;2023-07-13T16:55:55;22.30;1.00
3876;DHT22;1953;51.222;6.624;2023-07-13T17:00:42;22.40;1.00
3876;DHT22;1953;51.222;6.624;2023-07-13T17:05:25;22.60;1.00
3876;DHT22;1953;51.222;6.624;2023-07-13T17:10:16;23.30;1.00
3876;DHT22;1953;51.222;6.624;2023-07-13T17:15:01;24.10;1.00
3876;DHT22;1953;51.222;6.624;2023-07-13T17:19:46;25.00;1.00
3876;DHT22;1953;51.222;6.624;2023-07-13T17:24:29;25.20;1.00
3876;DHT22;1953;51.222;6.624;2023-07-13T17:29:13;25.60;1.00
3876;DHT22;1953;51.222;6.624;2023-07-13T17:33:56;25.50;1.00
3876;DHT22;1953;51.222;6.624;2023-07-13T17:38:42;25.70;1.00
3876;DHT22;1953;51.222;6.624;2023-07-13T17:43:24;25.50;1.00
3876;DHT22;1953;51.222;6.624;2023-07-13T17:48:08;25.60;1.00
3876;DHT22;1953;51.222;6.624;2023-07-13T17:52:53;25.60;1.00
3876;DHT22;1953;51.222;6.624;2023-07-13T17:57:37;25.60;1.00
3876;DHT22;1953;51.222;6.624;2023-07-13T18:02:21;25.70;1.00
3876;DHT22;1953;51.222;6.624;2023-07-13T18:07:08;25.40;1.00
3876;DHT22;1953;51.222;6.624;2023-07-13T18:11:58;25.00;1.00
3876;DHT22;1953;51.222;6.624;2023-07-13T18:16:50;24.70;1.00
3876;DHT22;1953;51.222;6.624;2023-07-13T18:21:34;24.50;1.00
3876;DHT22;1953;51.222;6.624;2023-07-13T18:26:18;24.60;1.00
3876;DHT22;1953;51.222;6.624;2023-07-13T18:31:01;24.40;1.00
3876;DHT22;1953;51.222;6.624;2023-07-13T18:35:46;24.20;1.00
3876;DHT22;1953;51.222;6.624;2023-07-13T18:40:28;24.00;1.00
3876;DHT22;1953;51.222;6.624;2023-07-13T18:45:12;23.80;1.00
3876;DHT22;1953;51.222;6.624;2023-07-13T18:49:44;23.50;1.00
3876;DHT22;1953;51.222;6.624;2023-07-13T18:54:28;23.50;1.00
3876;DHT22;1953;51.222;6.624;2023-07-13T18:59:11;23.40;1.00
3876;DHT22;1953;51.222;6.624;2023-07-13T19:03:53;23.40;1.00
3876;DHT22;1953;51.222;6.624;2023-07-13T19:08:39;23.20;1.00
3876;DHT22;1953;51.222;6.624;2023-07-13T19:13:27;23.10;1.00
3876;DHT22;1953;51.222;6.624;2023-07-13T19:18:13;23.10;1.00
3876;DHT22;1953;51.222;6.624;2023-07-13T19:23:01;23.10;1.00
3876;DHT22;1953;51.222;6.624;2023-07-13T19:27:45;23.10;1.00
3876;DHT22;1953;51.222;6.624;2023-07-13T19:32:29;23.10;1.00
3876;DHT22;1953;51.222;6.624;2023-07-13T19:37:18;23.00;1.00
3876;DHT22;1953;51.222;6.624;2023-07-13T19:42:14;22.90;1.00
3876;DHT22;1953;51.222;6.624;2023-07-13T19:46:57;22.80;1.00
3876;DHT22;1953;51.222;6.624;2023-07-13T19:51:42;22.70;1.00
3876;DHT22;1953;51.222;6.624;2023-07-13T19:56:27;22.50;1.00
3876;DHT22;1953;51.222;6.624;2023-07-13T20:01:11;22.40;1.00
3876;DHT22;1953;51.222;6.624;2023-07-13T20:05:53;22.30;1.00
3876;DHT22;1953;51.222;6.624;2023-07-13T20:10:38;22.20;1.00
3876;DHT22;1953;51.222;6.624;2023-07-13T20:15:23;22.10;1.00
3876;DHT22;1953;51.222;6.624;2023-07-13T20:20:25;22.10;1.00
3876;DHT22;1953;51.222;6.624;2023-07-13T20:25:14;22.00;1.00
3876;DHT22;1953;51.222;6.624;2023-07-13T20:29:58;21.90;1.00
3876;DHT22;1953;51.222;6.624;2023-07-13T20:34:42;21.60;1.00
3876;DHT22;1953;51.222;6.624;2023-07-13T20:39:25;21.60;1.00
3876;DHT22;1953;51.222;6.624;2023-07-13T20:44:08;21.60;1.00
3876;DHT22;1953;51.222;6.624;2023-07-13T20:48:53;21.50;1.00
3876;DHT22;1953;51.222;6.624;2023-07-13T20:53:36;21.50;1.00
3876;DHT22;1953;51.222;6.624;2023-07-13T20:58:18;21.30;1.00
3876;DHT22;1953;51.222;6.624;2023-07-13T21:03:03;21.20;1.00
3876;DHT22;1953;51.222;6.624;2023-07-13T21:07:49;21.00;1.00
3876;DHT22;1953;51.222;6.624;2023-07-13T21:12:31;21.00;1.00
3876;DHT22;1953;51.222;6.624;2023-07-13T21:17:14;20.90;1.00
3876;DHT22;1953;51.222;6.624;2023-07-13T21:21:57;20.90;1.00
3876;DHT22;1953;51.222;6.624;2023-07-13T21:26:42;20.90;1.00
3876;DHT22;1953;51.222;6.624;2023-07-13T21:31:26;20.70;1.00
3876;DHT22;1953;51.222;6.624;2023-07-13T21:36:09;20.60;1.00
3876;DHT22;1953;51.222;6.624;2023-07-13T21:40:54;20.50;1.00
3876;DHT22;1953;51.222;6.624;2023-07-13T21:45:39;20.40;1.00
3876;DHT22;1953;51.222;6.624;2023-07-13T21:50:33;20.30;1.00
3876;DHT22;1953;51.222;6.624;2023-07-13T21:55:18;20.20;1.00
3876;DHT22;1953;51.222;6.624;2023-07-13T22:00:03;20.00;1.00
3876;DHT22;1953;51.222;6.624;2023-07-13T22:04:50;20.00;1.00
3876;DHT22;1953;51.222;6.624;2023-07-13T22:09:33;19.90;1.00
3876;DHT22;1953;51.222;6.624;2023-07-13T22:14:15;19.80;1.00
3876;DHT22;1953;51.222;6.624;2023-07-13T22:19:00;19.70;1.00
3876;DHT22;1953;51.222;6.624;2023-07-13T22:23:46;19.60;1.00
3876;DHT22;1953;51.222;6.624;2023-07-13T22:28:29;19.50;1.00
3876;DHT22;1953;51.222;6.624;2023-07-13T22:33:16;19.30;1.00
3876;DHT22;1953;51.222;6.624;2023-07-13T22:37:58;19.20;1.00
3876;DHT22;1953;51.222;6.624;2023-07-13T22:42:43;19.20;1.00
3876;DHT22;1953;51.222;6.624;2023-07-13T22:47:25;19.10;1.00
3876;DHT22;1953;51.222;6.624;2023-07-13T22:52:11;19.10;1.00
3876;DHT22;1953;51.222;6.624;2023-07-13T22:56:54;19.10;1.00
3876;DHT22;1953;51.222;6.624;2023-07-13T23:01:39;19.10;1.00
3876;DHT22;1953;51.222;6.624;2023-07-13T23:06:25;19.10;1.00
3876;DHT22;1953;51.222;6.624;2023-07-13T23:11:09;19.10;1.00
3876;DHT22;1953;51.222;6.624;2023-07-13T23:15:53;19.10;1.00
3876;DHT22;1953;51.222;6.624;2023-07-13T23:20:38;19.10;1.00
3876;DHT22;1953;51.222;6.624;2023-07-13T23:25:22;19.10;1.00
3876;DHT22;1953;51.222;6.624;2023-07-13T23:30:08;19.10;1.00
3876;DHT22;1953;51.222;6.624;2023-07-13T23:34:54;19.10;1.00
3876;DHT22;1953;51.222;6.624;2023-07-13T23:39:38;19.10;1.00
3876;DHT22;1953;51.222;6.624;2023-07-13T23:44:21;19.00;1.00
3876;DHT22;1953;51.222;6.624;2023-07-13T23:49:09;19.00;1.00
3876;DHT22;1953;51.222;6.624;2023-07-13T23:53:55;18.90;1.00
3876;DHT22;1953;51.222;6.624;2023-07-13T23:58:39;19.00;1.00
